sensor_id;sensor_type;location;lat;lon;timestamp;P1;durP1;ratioP1;P2;durP2;ratioP2
8260;SDS011;64115;50.170;8.242;2023-03-19T00:00:18;2.57;;;1.30;;
8260;SDS011;64115;50.170;8.242;2023-03-19T00:02:47;1.87;;;1.10;;
8260;SDS011;64115;50.170;8.242;2023-03-19T00:05:15;2.47;;;1.30;;
8260;SDS011;64115;50.170;8.242;2023-03-19T00:07:43;1.73;;;1.43;;
8260;SDS011;64115;50.170;8.242;2023-03-19T00:10:10;3.27;;;1.30;;
8260;SDS011;64115;50.170;8.242;2023-03-19T00:12:37;2.40;;;1.40;;
8260;SDS011;64115;50.170;8.242;2023-03-19T00:15:05;3.97;;;1.50;;
8260;SDS011;64115;50.170;8.242;2023-03-19T00:17:38;2.07;;;1.40;;
8260;SDS011;64115;50.170;8.242;2023-03-19T00:20:10;2.63;;;1.50;;
8260;SDS011;64115;50.170;8.242;2023-03-19T00:22:38;3.60;;;1.30;;
8260;SDS011;64115;50.170;8.242;2023-03-19T00:25:06;2.10;;;1.50;;
8260;SDS011;64115;50.170;8.242;2023-03-19T00:27:34;2.30;;;1.40;;
8260;SDS011;64115;50.170;8.242;2023-03-19T00:30:01;2.27;;;1.30;;
8260;SDS011;64115;50.170;8.242;2023-03-19T00:32:28;3.07;;;1.40;;
8260;SDS011;64115;50.170;8.242;2023-03-19T00:34:57;1.40;;;1.27;;
8260;SDS011;64115;50.170;8.242;2023-03-19T00:37:25;1.67;;;1.40;;
8260;SDS011;64115;50.170;8.242;2023-03-19T00:39:52;2.33;;;1.37;;
8260;SDS011;64115;50.170;8.242;2023-03-19T00:42:20;2.70;;;1.20;;
8260;SDS011;64115;50.170;8.242;2023-03-19T00:44:47;1.90;;;1.33;;
8260;SDS011;64115;50.170;8.242;2023-03-19T00:47:14;3.50;;;1.40;;
8260;SDS011;64115;50.170;8.242;2023-03-19T00:49:41;3.67;;;1.60;;
8260;SDS011;64115;50.170;8.242;2023-03-19T00:52:08;3.13;;;1.30;;
8260;SDS011;64115;50.170;8.242;2023-03-19T00:54:36;1.53;;;1.20;;
8260;SDS011;64115;50.170;8.242;2023-03-19T00:57:03;2.00;;;1.40;;
8260;SDS011;64115;50.170;8.242;2023-03-19T00:59:31;1.87;;;1.33;;
8260;SDS011;64115;50.170;8.242;2023-03-19T01:01:58;1.43;;;1.30;;
8260;SDS011;64115;50.170;8.242;2023-03-19T01:04:25;1.53;;;1.30;;
8260;SDS011;64115;50.170;8.242;2023-03-19T01:06:52;1.93;;;1.50;;
8260;SDS011;64115;50.170;8.242;2023-03-19T01:09:19;2.30;;;1.40;;
8260;SDS011;64115;50.170;8.242;2023-03-19T01:11:48;1.83;;;1.30;;
8260;SDS011;64115;50.170;8.242;2023-03-19T01:14:15;2.40;;;1.57;;
8260;SDS011;64115;50.170;8.242;2023-03-19T01:16:42;1.70;;;1.60;;
8260;SDS011;64115;50.170;8.242;2023-03-19T01:19:09;3.53;;;1.60;;
8260;SDS011;64115;50.170;8.242;2023-03-19T01:21:37;3.73;;;1.77;;
8260;SDS011;64115;50.170;8.242;2023-03-19T01:24:05;3.57;;;1.70;;
8260;SDS011;64115;50.170;8.242;2023-03-19T01:26:32;5.37;;;1.73;;
8260;SDS011;64115;50.170;8.242;2023-03-19T01:29:01;4.17;;;1.93;;
8260;SDS011;64115;50.170;8.242;2023-03-19T01:31:28;3.93;;;1.60;;
8260;SDS011;64115;50.170;8.242;2023-03-19T01:33:55;3.77;;;1.60;;
8260;SDS011;64115;50.170;8.242;2023-03-19T01:36:22;1.83;;;1.50;;
8260;SDS011;64115;50.170;8.242;2023-03-19T01:38:49;2.90;;;1.57;;
8260;SDS011;64115;50.170;8.242;2023-03-19T01:41:16;2.07;;;1.17;;
8260;SDS011;64115;50.170;8.242;2023-03-19T01:43:42;1.37;;;1.20;;
8260;SDS011;64115;50.170;8.242;2023-03-19T01:46:13;3.40;;;1.50;;
8260;SDS011;64115;50.170;8.242;2023-03-19T01:48:49;2.20;;;1.40;;
8260;SDS011;64115;50.170;8.242;2023-03-19T01:51:21;1.83;;;1.30;;
8260;SDS011;64115;50.170;8.242;2023-03-19T01:53:52;2.53;;;1.40;;
8260;SDS011;64115;50.170;8.242;2023-03-19T01:56:22;3.83;;;1.50;;
8260;SDS011;64115;50.170;8.242;2023-03-19T01:58:55;3.10;;;1.43;;
8260;SDS011;64115;50.170;8.242;2023-03-19T02:01:26;3.43;;;1.33;;
8260;SDS011;64115;50.170;8.242;2023-03-19T02:03:55;2.10;;;1.10;;
8260;SDS011;64115;50.170;8.242;2023-03-19T02:06:22;1.80;;;1.27;;
8260;SDS011;64115;50.170;8.242;2023-03-19T02:08:50;2.83;;;1.60;;
8260;SDS011;64115;50.170;8.242;2023-03-19T02:11:18;1.80;;;1.40;;
8260;SDS011;64115;50.170;8.242;2023-03-19T02:13:46;2.63;;;1.47;;
8260;SDS011;64115;50.170;8.242;2023-03-19T02:16:14;3.73;;;1.50;;
8260;SDS011;64115;50.170;8.242;2023-03-19T02:18:42;1.97;;;1.30;;
8260;SDS011;64115;50.170;8.242;2023-03-19T02:21:10;3.27;;;1.33;;
8260;SDS011;64115;50.170;8.242;2023-03-19T02:23:40;2.20;;;1.53;;
8260;SDS011;64115;50.170;8.242;2023-03-19T02:26:16;3.07;;;1.30;;
8260;SDS011;64115;50.170;8.242;2023-03-19T02:28:46;2.40;;;1.20;;
8260;SDS011;64115;50.170;8.242;2023-03-19T02:31:15;4.40;;;1.50;;
8260;SDS011;64115;50.170;8.242;2023-03-19T02:33:43;1.47;;;1.30;;
8260;SDS011;64115;50.170;8.242;2023-03-19T02:36:11;1.40;;;1.20;;
8260;SDS011;64115;50.170;8.242;2023-03-19T02:38:42;2.20;;;1.40;;
8260;SDS011;64115;50.170;8.242;2023-03-19T02:41:11;2.97;;;1.40;;
8260;SDS011;64115;50.170;8.242;2023-03-19T02:43:40;2.93;;;1.43;;
8260;SDS011;64115;50.170;8.242;2023-03-19T02:46:08;5.27;;;1.50;;
8260;SDS011;64115;50.170;8.242;2023-03-19T02:48:37;2.30;;;1.60;;
8260;SDS011;64115;50.170;8.242;2023-03-19T02:51:05;1.60;;;1.27;;
8260;SDS011;64115;50.170;8.242;2023-03-19T02:53:32;5.43;;;1.73;;
8260;SDS011;64115;50.170;8.242;2023-03-19T02:56:00;2.40;;;1.63;;
8260;SDS011;64115;50.170;8.242;2023-03-19T02:58:27;1.73;;;1.40;;
8260;SDS011;64115;50.170;8.242;2023-03-19T03:00:55;2.27;;;1.57;;
8260;SDS011;64115;50.170;8.242;2023-03-19T03:03:22;2.37;;;1.60;;
8260;SDS011;64115;50.170;8.242;2023-03-19T03:05:49;3.83;;;1.47;;
8260;SDS011;64115;50.170;8.242;2023-03-19T03:08:17;3.23;;;1.60;;
8260;SDS011;64115;50.170;8.242;2023-03-19T03:10:44;2.00;;;1.40;;
8260;SDS011;64115;50.170;8.242;2023-03-19T03:13:11;2.67;;;1.40;;
8260;SDS011;64115;50.170;8.242;2023-03-19T03:15:38;1.73;;;1.50;;
8260;SDS011;64115;50.170;8.242;2023-03-19T03:18:07;1.43;;;1.33;;
8260;SDS011;64115;50.170;8.242;2023-03-19T03:20:34;3.10;;;1.70;;
8260;SDS011;64115;50.170;8.242;2023-03-19T03:23:01;2.73;;;1.47;;
8260;SDS011;64115;50.170;8.242;2023-03-19T03:25:28;1.53;;;1.23;;
8260;SDS011;64115;50.170;8.242;2023-03-19T03:27:55;2.93;;;1.70;;
8260;SDS011;64115;50.170;8.242;2023-03-19T03:30:22;1.80;;;1.40;;
8260;SDS011;64115;50.170;8.242;2023-03-19T03:32:49;1.90;;;1.50;;
8260;SDS011;64115;50.170;8.242;2023-03-19T03:35:18;2.40;;;1.20;;
8260;SDS011;64115;50.170;8.242;2023-03-19T03:37:46;1.70;;;1.30;;
8260;SDS011;64115;50.170;8.242;2023-03-19T03:40:14;2.27;;;1.50;;
8260;SDS011;64115;50.170;8.242;2023-03-19T03:42:41;2.57;;;1.30;;
8260;SDS011;64115;50.170;8.242;2023-03-19T03:45:09;2.47;;;1.33;;
8260;SDS011;64115;50.170;8.242;2023-03-19T03:47:37;3.33;;;1.80;;
8260;SDS011;64115;50.170;8.242;2023-03-19T03:50:05;2.20;;;1.40;;
8260;SDS011;64115;50.170;8.242;2023-03-19T03:52:36;1.83;;;1.40;;
8260;SDS011;64115;50.170;8.242;2023-03-19T03:55:04;2.50;;;1.40;;
8260;SDS011;64115;50.170;8.242;2023-03-19T03:57:32;2.47;;;1.20;;
8260;SDS011;64115;50.170;8.242;2023-03-19T03:59:59;3.43;;;1.33;;
8260;SDS011;64115;50.170;8.242;2023-03-19T04:02:26;1.30;;;1.20;;
8260;SDS011;64115;50.170;8.242;2023-03-19T04:04:54;2.33;;;1.47;;
8260;SDS011;64115;50.170;8.242;2023-03-19T04:07:21;2.10;;;1.30;;
8260;SDS011;64115;50.170;8.242;2023-03-19T04:09:50;1.43;;;1.00;;
8260;SDS011;64115;50.170;8.242;2023-03-19T04:12:17;2.17;;;1.27;;
8260;SDS011;64115;50.170;8.242;2023-03-19T04:14:44;1.97;;;1.40;;
8260;SDS011;64115;50.170;8.242;2023-03-19T04:17:11;2.50;;;1.30;;
8260;SDS011;64115;50.170;8.242;2023-03-19T04:19:38;1.97;;;1.33;;
8260;SDS011;64115;50.170;8.242;2023-03-19T04:22:05;2.27;;;1.50;;
8260;SDS011;64115;50.170;8.242;2023-03-19T04:24:33;2.07;;;1.30;;
8260;SDS011;64115;50.170;8.242;2023-03-19T04:27:01;4.00;;;1.40;;
8260;SDS011;64115;50.170;8.242;2023-03-19T04:29:29;1.73;;;1.10;;
8260;SDS011;64115;50.170;8.242;2023-03-19T04:31:56;2.77;;;1.47;;
8260;SDS011;64115;50.170;8.242;2023-03-19T04:34:23;2.13;;;1.50;;
8260;SDS011;64115;50.170;8.242;2023-03-19T04:36:50;1.50;;;1.40;;
8260;SDS011;64115;50.170;8.242;2023-03-19T04:39:18;5.73;;;2.23;;
8260;SDS011;64115;50.170;8.242;2023-03-19T04:41:45;1.37;;;1.27;;
8260;SDS011;64115;50.170;8.242;2023-03-19T04:44:14;2.53;;;1.50;;
8260;SDS011;64115;50.170;8.242;2023-03-19T04:46:41;2.20;;;1.20;;
8260;SDS011;64115;50.170;8.242;2023-03-19T04:49:10;1.50;;;1.40;;
8260;SDS011;64115;50.170;8.242;2023-03-19T04:51:38;3.73;;;1.60;;
8260;SDS011;64115;50.170;8.242;2023-03-19T04:54:06;1.30;;;1.17;;
8260;SDS011;64115;50.170;8.242;2023-03-19T04:56:34;4.17;;;1.40;;
8260;SDS011;64115;50.170;8.242;2023-03-19T04:59:01;1.60;;;1.20;;
8260;SDS011;64115;50.170;8.242;2023-03-19T05:01:29;1.43;;;1.20;;
8260;SDS011;64115;50.170;8.242;2023-03-19T05:03:57;1.40;;;1.30;;
8260;SDS011;64115;50.170;8.242;2023-03-19T05:06:26;1.43;;;1.30;;
8260;SDS011;64115;50.170;8.242;2023-03-19T05:08:55;3.17;;;1.50;;
8260;SDS011;64115;50.170;8.242;2023-03-19T05:11:24;3.10;;;1.40;;
8260;SDS011;64115;50.170;8.242;2023-03-19T05:13:51;2.60;;;1.67;;
8260;SDS011;64115;50.170;8.242;2023-03-19T05:16:19;1.40;;;1.30;;
8260;SDS011;64115;50.170;8.242;2023-03-19T05:18:48;2.10;;;1.40;;
8260;SDS011;64115;50.170;8.242;2023-03-19T05:21:16;3.50;;;1.53;;
8260;SDS011;64115;50.170;8.242;2023-03-19T05:23:44;2.60;;;1.60;;
8260;SDS011;64115;50.170;8.242;2023-03-19T05:26:16;1.70;;;1.60;;
8260;SDS011;64115;50.170;8.242;2023-03-19T05:28:44;4.57;;;1.50;;
8260;SDS011;64115;50.170;8.242;2023-03-19T05:31:13;1.90;;;1.37;;
8260;SDS011;64115;50.170;8.242;2023-03-19T05:33:41;3.17;;;1.40;;
8260;SDS011;64115;50.170;8.242;2023-03-19T05:36:10;1.60;;;1.20;;
8260;SDS011;64115;50.170;8.242;2023-03-19T05:38:37;2.07;;;1.57;;
8260;SDS011;64115;50.170;8.242;2023-03-19T05:41:06;3.90;;;1.40;;
8260;SDS011;64115;50.170;8.242;2023-03-19T05:43:34;2.30;;;1.60;;
8260;SDS011;64115;50.170;8.242;2023-03-19T05:46:02;1.37;;;1.20;;
8260;SDS011;64115;50.170;8.242;2023-03-19T05:48:30;2.83;;;1.10;;
8260;SDS011;64115;50.170;8.242;2023-03-19T05:50:57;3.10;;;1.50;;
8260;SDS011;64115;50.170;8.242;2023-03-19T05:53:26;1.63;;;1.30;;
8260;SDS011;64115;50.170;8.242;2023-03-19T05:55:53;1.90;;;1.23;;
8260;SDS011;64115;50.170;8.242;2023-03-19T05:58:21;1.30;;;1.30;;
8260;SDS011;64115;50.170;8.242;2023-03-19T06:00:48;2.53;;;1.20;;
8260;SDS011;64115;50.170;8.242;2023-03-19T06:03:15;2.50;;;1.50;;
8260;SDS011;64115;50.170;8.242;2023-03-19T06:05:43;3.13;;;1.67;;
8260;SDS011;64115;50.170;8.242;2023-03-19T06:08:09;1.53;;;1.43;;
8260;SDS011;64115;50.170;8.242;2023-03-19T06:10:38;2.47;;;1.60;;
8260;SDS011;64115;50.170;8.242;2023-03-19T06:13:05;3.47;;;1.80;;
8260;SDS011;64115;50.170;8.242;2023-03-19T06:15:32;2.17;;;1.60;;
8260;SDS011;64115;50.170;8.242;2023-03-19T06:17:59;2.70;;;1.77;;
8260;SDS011;64115;50.170;8.242;2023-03-19T06:20:27;2.10;;;1.30;;
8260;SDS011;64115;50.170;8.242;2023-03-19T06:22:55;2.00;;;1.40;;
8260;SDS011;64115;50.170;8.242;2023-03-19T06:25:22;1.77;;;1.20;;
8260;SDS011;64115;50.170;8.242;2023-03-19T06:27:50;2.80;;;1.40;;
8260;SDS011;64115;50.170;8.242;2023-03-19T06:30:17;1.50;;;1.30;;
8260;SDS011;64115;50.170;8.242;2023-03-19T06:32:45;3.90;;;1.33;;
8260;SDS011;64115;50.170;8.242;2023-03-19T06:35:13;1.30;;;1.20;;
8260;SDS011;64115;50.170;8.242;2023-03-19T06:37:39;2.00;;;1.10;;
8260;SDS011;64115;50.170;8.242;2023-03-19T06:40:07;2.03;;;1.20;;
8260;SDS011;64115;50.170;8.242;2023-03-19T06:42:36;1.63;;;1.40;;
8260;SDS011;64115;50.170;8.242;2023-03-19T06:45:06;1.30;;;1.20;;
8260;SDS011;64115;50.170;8.242;2023-03-19T06:47:34;1.80;;;1.37;;
8260;SDS011;64115;50.170;8.242;2023-03-19T06:50:01;1.77;;;1.63;;
8260;SDS011;64115;50.170;8.242;2023-03-19T06:52:28;3.13;;;2.07;;
8260;SDS011;64115;50.170;8.242;2023-03-19T06:54:55;3.23;;;2.13;;
8260;SDS011;64115;50.170;8.242;2023-03-19T06:57:23;3.23;;;1.80;;
8260;SDS011;64115;50.170;8.242;2023-03-19T06:59:51;2.00;;;1.80;;
8260;SDS011;64115;50.170;8.242;2023-03-19T07:02:19;2.57;;;1.60;;
8260;SDS011;64115;50.170;8.242;2023-03-19T07:04:47;3.40;;;1.70;;
8260;SDS011;64115;50.170;8.242;2023-03-19T07:07:14;1.90;;;1.67;;
8260;SDS011;64115;50.170;8.242;2023-03-19T07:09:41;2.80;;;1.80;;
8260;SDS011;64115;50.170;8.242;2023-03-19T07:12:08;3.33;;;2.00;;
8260;SDS011;64115;50.170;8.242;2023-03-19T07:14:35;2.90;;;2.00;;
8260;SDS011;64115;50.170;8.242;2023-03-19T07:17:02;2.07;;;1.83;;
8260;SDS011;64115;50.170;8.242;2023-03-19T07:19:31;1.53;;;1.43;;
8260;SDS011;64115;50.170;8.242;2023-03-19T07:21:58;1.93;;;1.57;;
8260;SDS011;64115;50.170;8.242;2023-03-19T07:24:25;1.80;;;1.63;;
8260;SDS011;64115;50.170;8.242;2023-03-19T07:26:52;2.50;;;2.13;;
8260;SDS011;64115;50.170;8.242;2023-03-19T07:29:19;3.43;;;2.20;;
8260;SDS011;64115;50.170;8.242;2023-03-19T07:31:46;2.20;;;2.00;;
8260;SDS011;64115;50.170;8.242;2023-03-19T07:34:13;3.00;;;2.00;;
8260;SDS011;64115;50.170;8.242;2023-03-19T07:36:42;4.37;;;2.10;;
8260;SDS011;64115;50.170;8.242;2023-03-19T07:39:09;2.37;;;1.87;;
8260;SDS011;64115;50.170;8.242;2023-03-19T07:41:36;2.20;;;2.00;;
8260;SDS011;64115;50.170;8.242;2023-03-19T07:44:03;3.27;;;2.30;;
8260;SDS011;64115;50.170;8.242;2023-03-19T07:46:30;2.73;;;2.30;;
8260;SDS011;64115;50.170;8.242;2023-03-19T07:48:57;3.47;;;2.30;;
8260;SDS011;64115;50.170;8.242;2023-03-19T07:51:24;2.90;;;2.43;;
8260;SDS011;64115;50.170;8.242;2023-03-19T07:53:53;2.40;;;1.80;;
8260;SDS011;64115;50.170;8.242;2023-03-19T07:56:20;3.90;;;2.30;;
8260;SDS011;64115;50.170;8.242;2023-03-19T07:58:47;2.60;;;2.20;;
8260;SDS011;64115;50.170;8.242;2023-03-19T08:01:14;2.10;;;1.90;;
8260;SDS011;64115;50.170;8.242;2023-03-19T08:03:41;3.80;;;2.10;;
8260;SDS011;64115;50.170;8.242;2023-03-19T08:06:08;2.47;;;1.93;;
8260;SDS011;64115;50.170;8.242;2023-03-19T08:08:35;2.17;;;2.00;;
8260;SDS011;64115;50.170;8.242;2023-03-19T08:11:04;4.53;;;1.70;;
8260;SDS011;64115;50.170;8.242;2023-03-19T08:13:31;2.47;;;1.77;;
8260;SDS011;64115;50.170;8.242;2023-03-19T08:15:58;1.80;;;1.70;;
8260;SDS011;64115;50.170;8.242;2023-03-19T08:18:26;2.70;;;2.00;;
8260;SDS011;64115;50.170;8.242;2023-03-19T08:20:53;2.00;;;1.67;;
8260;SDS011;64115;50.170;8.242;2023-03-19T08:23:20;2.23;;;1.80;;
8260;SDS011;64115;50.170;8.242;2023-03-19T08:25:47;3.80;;;2.00;;
8260;SDS011;64115;50.170;8.242;2023-03-19T08:28:17;1.70;;;1.60;;
8260;SDS011;64115;50.170;8.242;2023-03-19T08:30:44;2.83;;;1.90;;
8260;SDS011;64115;50.170;8.242;2023-03-19T08:33:11;3.50;;;1.80;;
8260;SDS011;64115;50.170;8.242;2023-03-19T08:35:38;2.33;;;2.00;;
8260;SDS011;64115;50.170;8.242;2023-03-19T08:38:06;2.57;;;2.03;;
8260;SDS011;64115;50.170;8.242;2023-03-19T08:40:33;2.30;;;1.97;;
8260;SDS011;64115;50.170;8.242;2023-03-19T08:43:00;2.20;;;1.90;;
8260;SDS011;64115;50.170;8.242;2023-03-19T08:45:29;2.50;;;2.13;;
8260;SDS011;64115;50.170;8.242;2023-03-19T08:47:56;2.40;;;2.20;;
8260;SDS011;64115;50.170;8.242;2023-03-19T08:50:23;4.37;;;2.40;;
8260;SDS011;64115;50.170;8.242;2023-03-19T08:52:51;3.53;;;2.20;;
8260;SDS011;64115;50.170;8.242;2023-03-19T08:55:18;3.33;;;2.30;;
8260;SDS011;64115;50.170;8.242;2023-03-19T08:57:45;2.33;;;2.13;;
8260;SDS011;64115;50.170;8.242;2023-03-19T09:00:13;4.63;;;2.40;;
8260;SDS011;64115;50.170;8.242;2023-03-19T09:02:42;4.10;;;2.47;;
8260;SDS011;64115;50.170;8.242;2023-03-19T09:05:10;4.33;;;2.40;;
8260;SDS011;64115;50.170;8.242;2023-03-19T09:07:37;3.00;;;2.20;;
8260;SDS011;64115;50.170;8.242;2023-03-19T09:10:04;2.27;;;1.90;;
8260;SDS011;64115;50.170;8.242;2023-03-19T09:12:32;2.37;;;1.93;;
8260;SDS011;64115;50.170;8.242;2023-03-19T09:14:59;2.33;;;2.20;;
8260;SDS011;64115;50.170;8.242;2023-03-19T09:17:27;4.53;;;2.10;;
8260;SDS011;64115;50.170;8.242;2023-03-19T09:19:56;3.30;;;2.03;;
8260;SDS011;64115;50.170;8.242;2023-03-19T09:22:23;4.23;;;2.30;;
8260;SDS011;64115;50.170;8.242;2023-03-19T09:24:50;2.47;;;2.03;;
8260;SDS011;64115;50.170;8.242;2023-03-19T09:27:17;2.80;;;2.20;;
8260;SDS011;64115;50.170;8.242;2023-03-19T09:29:45;3.57;;;2.03;;
8260;SDS011;64115;50.170;8.242;2023-03-19T09:32:12;2.17;;;1.97;;
8260;SDS011;64115;50.170;8.242;2023-03-19T09:34:39;3.67;;;2.30;;
8260;SDS011;64115;50.170;8.242;2023-03-19T09:37:08;3.17;;;2.03;;
8260;SDS011;64115;50.170;8.242;2023-03-19T09:39:35;3.97;;;2.10;;
8260;SDS011;64115;50.170;8.242;2023-03-19T09:42:10;2.30;;;2.10;;
8260;SDS011;64115;50.170;8.242;2023-03-19T09:44:43;1.83;;;1.73;;
8260;SDS011;64115;50.170;8.242;2023-03-19T09:47:25;1.83;;;1.73;;
8260;SDS011;64115;50.170;8.242;2023-03-19T09:49:54;2.40;;;1.80;;
8260;SDS011;64115;50.170;8.242;2023-03-19T09:52:33;4.73;;;2.10;;
8260;SDS011;64115;50.170;8.242;2023-03-19T09:55:10;2.97;;;1.60;;
8260;SDS011;64115;50.170;8.242;2023-03-19T09:57:44;1.50;;;1.40;;
8260;SDS011;64115;50.170;8.242;2023-03-19T10:00:18;1.63;;;1.53;;
8260;SDS011;64115;50.170;8.242;2023-03-19T10:02:49;3.67;;;1.60;;
8260;SDS011;64115;50.170;8.242;2023-03-19T10:05:24;1.30;;;1.20;;
8260;SDS011;64115;50.170;8.242;2023-03-19T10:08:06;1.37;;;1.27;;
8260;SDS011;64115;50.170;8.242;2023-03-19T10:10:48;1.23;;;1.10;;
8260;SDS011;64115;50.170;8.242;2023-03-19T10:13:29;2.20;;;1.20;;
8260;SDS011;64115;50.170;8.242;2023-03-19T10:16:11;1.47;;;1.37;;
8260;SDS011;64115;50.170;8.242;2023-03-19T10:18:43;1.40;;;1.27;;
8260;SDS011;64115;50.170;8.242;2023-03-19T10:21:15;1.30;;;1.20;;
8260;SDS011;64115;50.170;8.242;2023-03-19T10:23:49;1.30;;;1.23;;
8260;SDS011;64115;50.170;8.242;2023-03-19T10:26:20;1.83;;;1.50;;
8260;SDS011;64115;50.170;8.242;2023-03-19T10:28:54;2.37;;;1.60;;
8260;SDS011;64115;50.170;8.242;2023-03-19T10:31:29;2.37;;;1.50;;
8260;SDS011;64115;50.170;8.242;2023-03-19T10:34:12;2.47;;;1.50;;
8260;SDS011;64115;50.170;8.242;2023-03-19T10:36:47;1.77;;;1.67;;
8260;SDS011;64115;50.170;8.242;2023-03-19T10:39:16;1.47;;;1.27;;
8260;SDS011;64115;50.170;8.242;2023-03-19T10:41:46;3.93;;;1.40;;
8260;SDS011;64115;50.170;8.242;2023-03-19T10:44:27;1.33;;;1.20;;
8260;SDS011;64115;50.170;8.242;2023-03-19T10:46:57;2.33;;;1.50;;
8260;SDS011;64115;50.170;8.242;2023-03-19T10:49:24;2.33;;;1.50;;
8260;SDS011;64115;50.170;8.242;2023-03-19T10:51:51;1.60;;;1.30;;
8260;SDS011;64115;50.170;8.242;2023-03-19T10:54:25;1.77;;;1.67;;
8260;SDS011;64115;50.170;8.242;2023-03-19T10:56:53;1.50;;;1.40;;
8260;SDS011;64115;50.170;8.242;2023-03-19T10:59:23;1.53;;;1.43;;
8260;SDS011;64115;50.170;8.242;2023-03-19T11:01:55;2.47;;;1.70;;
8260;SDS011;64115;50.170;8.242;2023-03-19T11:04:24;1.70;;;1.60;;
8260;SDS011;64115;50.170;8.242;2023-03-19T11:06:53;1.63;;;1.53;;
8260;SDS011;64115;50.170;8.242;2023-03-19T11:09:31;1.43;;;1.30;;
8260;SDS011;64115;50.170;8.242;2023-03-19T11:12:05;1.50;;;1.27;;
8260;SDS011;64115;50.170;8.242;2023-03-19T11:14:34;1.27;;;1.27;;
8260;SDS011;64115;50.170;8.242;2023-03-19T11:17:04;1.60;;;1.40;;
8260;SDS011;64115;50.170;8.242;2023-03-19T11:19:41;1.50;;;1.40;;
8260;SDS011;64115;50.170;8.242;2023-03-19T11:22:15;2.00;;;1.80;;
8260;SDS011;64115;50.170;8.242;2023-03-19T11:24:49;2.00;;;1.60;;
8260;SDS011;64115;50.170;8.242;2023-03-19T11:27:18;2.23;;;1.80;;
8260;SDS011;64115;50.170;8.242;2023-03-19T11:29:53;1.87;;;1.77;;
8260;SDS011;64115;50.170;8.242;2023-03-19T11:32:34;2.67;;;2.20;;
8260;SDS011;64115;50.170;8.242;2023-03-19T11:35:20;2.37;;;1.90;;
8260;SDS011;64115;50.170;8.242;2023-03-19T11:37:53;2.57;;;2.20;;
8260;SDS011;64115;50.170;8.242;2023-03-19T11:43:14;2.23;;;1.80;;
8260;SDS011;64115;50.170;8.242;2023-03-19T11:46:05;2.10;;;1.60;;
8260;SDS011;64115;50.170;8.242;2023-03-19T11:48:49;1.83;;;1.50;;
8260;SDS011;64115;50.170;8.242;2023-03-19T11:51:31;2.67;;;1.80;;
8260;SDS011;64115;50.170;8.242;2023-03-19T11:54:05;1.97;;;1.87;;
8260;SDS011;64115;50.170;8.242;2023-03-19T11:56:45;3.93;;;2.00;;
8260;SDS011;64115;50.170;8.242;2023-03-19T11:59:26;3.10;;;2.00;;
8260;SDS011;64115;50.170;8.242;2023-03-19T12:02:15;2.00;;;1.90;;
8260;SDS011;64115;50.170;8.242;2023-03-19T12:05:07;2.93;;;2.20;;
8260;SDS011;64115;50.170;8.242;2023-03-19T12:07:44;2.67;;;1.93;;
8260;SDS011;64115;50.170;8.242;2023-03-19T12:10:27;3.60;;;2.27;;
8260;SDS011;64115;50.170;8.242;2023-03-19T12:13:08;2.13;;;2.03;;
8260;SDS011;64115;50.170;8.242;2023-03-19T12:15:48;2.80;;;2.37;;
8260;SDS011;64115;50.170;8.242;2023-03-19T12:18:25;2.50;;;2.30;;
8260;SDS011;64115;50.170;8.242;2023-03-19T12:21:07;4.77;;;2.20;;
8260;SDS011;64115;50.170;8.242;2023-03-19T12:23:43;2.37;;;2.17;;
8260;SDS011;64115;50.170;8.242;2023-03-19T12:26:22;2.60;;;2.40;;
8260;SDS011;64115;50.170;8.242;2023-03-19T12:29:01;2.33;;;2.10;;
8260;SDS011;64115;50.170;8.242;2023-03-19T12:31:37;3.40;;;2.50;;
8260;SDS011;64115;50.170;8.242;2023-03-19T12:37:02;2.53;;;2.10;;
8260;SDS011;64115;50.170;8.242;2023-03-19T12:39:39;2.50;;;2.30;;
8260;SDS011;64115;50.170;8.242;2023-03-19T12:42:13;2.33;;;2.10;;
8260;SDS011;64115;50.170;8.242;2023-03-19T12:44:46;2.70;;;2.10;;
8260;SDS011;64115;50.170;8.242;2023-03-19T12:47:19;2.50;;;2.30;;
8260;SDS011;64115;50.170;8.242;2023-03-19T12:49:52;4.03;;;2.40;;
8260;SDS011;64115;50.170;8.242;2023-03-19T12:52:23;4.77;;;2.30;;
8260;SDS011;64115;50.170;8.242;2023-03-19T12:54:55;2.57;;;2.37;;
8260;SDS011;64115;50.170;8.242;2023-03-19T12:57:30;3.30;;;2.47;;
8260;SDS011;64115;50.170;8.242;2023-03-19T13:00:05;3.63;;;2.40;;
8260;SDS011;64115;50.170;8.242;2023-03-19T13:02:37;2.80;;;2.60;;
8260;SDS011;64115;50.170;8.242;2023-03-19T13:05:15;2.77;;;2.57;;
8260;SDS011;64115;50.170;8.242;2023-03-19T13:07:50;3.33;;;2.50;;
8260;SDS011;64115;50.170;8.242;2023-03-19T13:10:24;3.87;;;2.30;;
8260;SDS011;64115;50.170;8.242;2023-03-19T13:12:54;2.80;;;2.20;;
8260;SDS011;64115;50.170;8.242;2023-03-19T13:15:24;2.33;;;2.10;;
8260;SDS011;64115;50.170;8.242;2023-03-19T13:18:00;2.70;;;2.10;;
8260;SDS011;64115;50.170;8.242;2023-03-19T13:20:42;2.37;;;1.90;;
8260;SDS011;64115;50.170;8.242;2023-03-19T13:23:21;2.00;;;1.90;;
8260;SDS011;64115;50.170;8.242;2023-03-19T13:25:50;1.70;;;1.50;;
8260;SDS011;64115;50.170;8.242;2023-03-19T13:28:21;2.10;;;2.00;;
8260;SDS011;64115;50.170;8.242;2023-03-19T13:30:58;2.43;;;1.53;;
8260;SDS011;64115;50.170;8.242;2023-03-19T13:33:27;2.80;;;1.50;;
8260;SDS011;64115;50.170;8.242;2023-03-19T13:35:55;1.53;;;1.40;;
8260;SDS011;64115;50.170;8.242;2023-03-19T13:38:28;2.17;;;1.40;;
8260;SDS011;64115;50.170;8.242;2023-03-19T13:41:03;3.23;;;1.50;;
8260;SDS011;64115;50.170;8.242;2023-03-19T13:43:40;1.50;;;1.40;;
8260;SDS011;64115;50.170;8.242;2023-03-19T13:46:34;1.13;;;1.07;;
8260;SDS011;64115;50.170;8.242;2023-03-19T13:49:22;1.40;;;1.30;;
8260;SDS011;64115;50.170;8.242;2023-03-19T13:51:53;1.30;;;1.20;;
8260;SDS011;64115;50.170;8.242;2023-03-19T13:54:32;1.27;;;1.27;;
8260;SDS011;64115;50.170;8.242;2023-03-19T13:57:03;1.17;;;1.10;;
8260;SDS011;64115;50.170;8.242;2023-03-19T13:59:47;1.17;;;1.10;;
8260;SDS011;64115;50.170;8.242;2023-03-19T14:05:15;1.30;;;1.00;;
8260;SDS011;64115;50.170;8.242;2023-03-19T14:07:46;0.63;;;0.60;;
8260;SDS011;64115;50.170;8.242;2023-03-19T14:10:18;0.83;;;0.83;;
8260;SDS011;64115;50.170;8.242;2023-03-19T14:12:51;0.73;;;0.73;;
8260;SDS011;64115;50.170;8.242;2023-03-19T14:15:28;0.90;;;0.90;;
8260;SDS011;64115;50.170;8.242;2023-03-19T14:17:58;1.20;;;0.73;;
8260;SDS011;64115;50.170;8.242;2023-03-19T14:20:27;1.40;;;0.90;;
8260;SDS011;64115;50.170;8.242;2023-03-19T14:23:01;1.27;;;1.20;;
8260;SDS011;64115;50.170;8.242;2023-03-19T14:25:51;0.70;;;0.70;;
8260;SDS011;64115;50.170;8.242;2023-03-19T14:28:22;1.33;;;1.00;;
8260;SDS011;64115;50.170;8.242;2023-03-19T14:30:56;0.80;;;0.80;;
8260;SDS011;64115;50.170;8.242;2023-03-19T14:33:27;0.93;;;0.93;;
8260;SDS011;64115;50.170;8.242;2023-03-19T14:36:01;0.70;;;0.70;;
8260;SDS011;64115;50.170;8.242;2023-03-19T14:38:31;0.80;;;0.80;;
8260;SDS011;64115;50.170;8.242;2023-03-19T14:41:02;0.90;;;0.90;;
8260;SDS011;64115;50.170;8.242;2023-03-19T14:43:37;0.80;;;0.80;;
8260;SDS011;64115;50.170;8.242;2023-03-19T14:46:17;0.90;;;0.90;;
8260;SDS011;64115;50.170;8.242;2023-03-19T14:51:54;1.10;;;1.00;;
8260;SDS011;64115;50.170;8.242;2023-03-19T14:54:27;1.30;;;0.80;;
8260;SDS011;64115;50.170;8.242;2023-03-19T14:57:04;0.87;;;0.80;;
8260;SDS011;64115;50.170;8.242;2023-03-19T14:59:35;2.00;;;1.00;;
8260;SDS011;64115;50.170;8.242;2023-03-19T15:02:03;1.00;;;1.00;;
8260;SDS011;64115;50.170;8.242;2023-03-19T15:04:31;1.00;;;1.00;;
8260;SDS011;64115;50.170;8.242;2023-03-19T15:06:59;0.90;;;0.90;;
8260;SDS011;64115;50.170;8.242;2023-03-19T15:09:27;1.20;;;1.07;;
8260;SDS011;64115;50.170;8.242;2023-03-19T15:12:04;1.77;;;1.37;;
8260;SDS011;64115;50.170;8.242;2023-03-19T15:15:03;1.07;;;1.00;;
8260;SDS011;64115;50.170;8.242;2023-03-19T15:17:40;0.90;;;0.90;;
8260;SDS011;64115;50.170;8.242;2023-03-19T15:20:12;0.87;;;0.87;;
8260;SDS011;64115;50.170;8.242;2023-03-19T15:22:45;1.00;;;1.00;;
8260;SDS011;64115;50.170;8.242;2023-03-19T15:25:19;2.20;;;0.90;;
8260;SDS011;64115;50.170;8.242;2023-03-19T15:28:02;1.83;;;1.40;;
8260;SDS011;64115;50.170;8.242;2023-03-19T15:30:31;0.77;;;0.77;;